Time;durP1;ratioP1;P1;durP2;ratioP2;P2;SDS_P1;SDS_P2;PMS_P1;PMS_P2;Temp;Humidity;BMP_temperature;BMP_pressure;BME280_temperature;BME280_humidity;BME280_pressure;Samples;Min_cycle;Max_cycle;Signal;HPM_P1;HPM_P2
2023/12/10 00:00:05;;;;;;;37.60;5.07;;;7.50;99.90;;;;;;4981363;28;20022;-89
2023/12/10 00:02:31;;;;;;;44.75;5.95;;;7.50;99.90;;;;;;4980494;28;20061;-88
2023/12/10 00:04:57;;;;;;;37.15;5.68;;;7.50;99.90;;;;;;4979433;28;20479;-89
2023/12/10 00:07:23;;;;;;;27.85;5.72;;;7.50;99.90;;;;;;4979037;28;20117;-90
2023/12/10 00:09:49;;;;;;;35.60;5.30;;;7.50;99.90;;;;;;4978942;28;20471;-90
2023/12/10 00:12:14;;;;;;;39.88;5.30;;;7.50;99.90;;;;;;4978293;28;20031;-91
2023/12/10 00:14:41;;;;;;;27.38;3.75;;;7.60;99.90;;;;;;4978645;28;20049;-91
2023/12/10 00:17:07;;;;;;;33.05;4.47;;;7.50;99.90;;;;;;4962641;28;20030;-90
2023/12/10 00:19:35;;;;;;;31.90;2.83;;;7.50;99.90;;;;;;4978477;28;20037;-91
2023/12/10 00:22:03;;;;;;;31.15;4.55;;;7.50;99.90;;;;;;4978212;28;20022;-90
2023/12/10 00:24:31;;;;;;;27.55;3.75;;;7.50;99.90;;;;;;4978378;28;20084;-90
2023/12/10 00:26:57;;;;;;;34.85;3.83;;;7.40;99.90;;;;;;4978155;28;20555;-90
2023/12/10 00:29:22;;;;;;;25.35;4.05;;;7.40;99.90;;;;;;4978348;28;20102;-93
2023/12/10 00:31:49;;;;;;;35.17;4.90;;;7.40;99.90;;;;;;4977695;28;20321;-90
2023/12/10 00:34:15;;;;;;;31.65;4.20;;;7.40;99.90;;;;;;4977807;28;20053;-91
2023/12/10 00:36:41;;;;;;;32.45;3.85;;;7.40;99.90;;;;;;4977887;28;20026;-90
2023/12/10 00:39:06;;;;;;;26.15;4.35;;;7.40;99.90;;;;;;4978082;28;20074;-91
2023/12/10 00:41:32;;;;;;;38.35;5.30;;;7.40;99.90;;;;;;4978035;28;20080;-91
2023/12/10 00:43:58;;;;;;;33.72;3.72;;;7.40;99.90;;;;;;4978397;28;20031;-92
2023/12/10 00:46:24;;;;;;;32.50;4.15;;;7.40;99.90;;;;;;4978176;28;20030;-90
2023/12/10 00:48:49;;;;;;;32.22;4.55;;;7.40;99.90;;;;;;4977691;28;20030;-91
2023/12/10 00:51:22;;;;;;;38.63;5.80;;;7.30;99.90;;;;;;4980106;28;20510;-90
2023/12/10 00:53:48;;;;;;;32.47;4.30;;;7.30;99.90;;;;;;4980689;28;20125;-90
2023/12/10 00:56:14;;;;;;;29.20;3.55;;;7.30;99.90;;;;;;4980356;28;20037;-91
2023/12/10 00:58:40;;;;;;;29.27;3.42;;;7.30;99.90;;;;;;4978402;28;20125;-90
2023/12/10 01:01:07;;;;;;;36.58;4.22;;;7.30;99.90;;;;;;4978951;28;20065;-90
2023/12/10 01:03:34;;;;;;;33.95;3.85;;;7.40;99.90;;;;;;4979326;28;20062;-90
2023/12/10 01:06:01;;;;;;;41.70;4.75;;;7.40;99.90;;;;;;4977781;28;20046;-91
2023/12/10 01:08:27;;;;;;;31.02;4.57;;;7.40;99.90;;;;;;4977907;28;20034;-91
2023/12/10 01:10:52;;;;;;;36.90;4.53;;;7.50;99.90;;;;;;4978842;28;20023;-92
2023/12/10 01:13:18;;;;;;;42.10;4.78;;;7.50;99.90;;;;;;4978104;28;20200;-91
2023/12/10 01:15:44;;;;;;;36.55;4.30;;;7.50;99.90;;;;;;4978732;28;20053;-92
2023/12/10 01:18:10;;;;;;;35.28;4.63;;;7.50;99.90;;;;;;4977862;28;20073;-92
2023/12/10 01:20:37;;;;;;;31.90;4.40;;;7.60;99.90;;;;;;4980817;28;20190;-90
2023/12/10 01:23:07;;;;;;;31.13;3.75;;;7.60;99.90;;;;;;4982213;28;20026;-91
2023/12/10 01:25:32;;;;;;;28.35;4.18;;;7.60;99.90;;;;;;4982233;28;20039;-92
2023/12/10 01:27:58;;;;;;;37.38;4.35;;;7.60;99.90;;;;;;4979194;28;20023;-91
2023/12/10 01:30:25;;;;;;;23.52;3.80;;;7.70;99.90;;;;;;4977457;28;20042;-92
2023/12/10 01:32:58;;;;;;;37.13;4.63;;;7.70;99.90;;;;;;4977454;28;20026;-91
2023/12/10 01:35:24;;;;;;;21.60;3.83;;;7.70;99.90;;;;;;4960983;28;20116;-91
2023/12/10 01:37:50;;;;;;;47.45;6.93;;;7.70;99.90;;;;;;4977336;28;20054;-93
2023/12/10 01:40:17;;;;;;;15.77;2.35;;;7.70;99.90;;;;;;4977743;28;20042;-91
2023/12/10 01:42:46;;;;;;;36.35;3.85;;;7.70;99.90;;;;;;4978206;28;20042;-92
2023/12/10 01:45:12;;;;;;;45.22;4.30;;;7.70;99.90;;;;;;4983982;28;20022;-88
2023/12/10 01:47:43;;;;;;;59.30;6.43;;;7.70;99.90;;;;;;4980440;28;20524;-90
2023/12/10 01:50:13;;;;;;;29.52;3.40;;;7.70;99.90;;;;;;4976844;28;20073;-90
2023/12/10 01:52:40;;;;;;;31.10;3.47;;;7.70;99.90;;;;;;4977779;28;20035;-91
2023/12/10 01:55:09;;;;;;;32.17;4.35;;;7.70;99.90;;;;;;4978671;28;20035;-91
2023/12/10 01:57:36;;;;;;;28.17;4.75;;;7.70;99.90;;;;;;4977826;28;20038;-90
2023/12/10 02:00:07;;;;;;;27.38;3.97;;;7.70;99.90;;;;;;4977689;28;20040;-89
2023/12/10 02:02:33;;;;;;;;;;;7.70;99.90;;;;;;4988399;28;20026;-89
2023/12/10 02:05:05;;;;;;;34.80;3.83;;;7.70;99.90;;;;;;4986126;28;20355;-90
2023/12/10 02:07:31;;;;;;;32.15;5.15;;;7.70;99.90;;;;;;4984031;28;20435;-90
2023/12/10 02:09:57;;;;;;;23.85;4.55;;;7.70;99.90;;;;;;4983261;28;20130;-90
2023/12/10 02:12:23;;;;;;;36.55;4.10;;;7.60;99.90;;;;;;4982594;28;20029;-90
2023/12/10 02:14:49;;;;;;;28.20;4.45;;;7.70;99.90;;;;;;4983173;28;20042;-89
2023/12/10 02:17:15;;;;;;;34.28;4.22;;;7.60;99.90;;;;;;4984046;28;20029;-90
2023/12/10 02:19:41;;;;;;;36.70;5.05;;;7.60;99.90;;;;;;4983505;28;20379;-90
2023/12/10 02:22:13;;;;;;;30.73;4.25;;;7.60;99.90;;;;;;4996351;28;20037;-93
2023/12/10 02:24:48;;;;;;;27.65;3.58;;;7.60;99.90;;;;;;5004245;28;20097;-93
2023/12/10 02:27:14;;;;;;;40.63;5.82;;;7.60;99.90;;;;;;5002178;28;20033;-93
2023/12/10 02:29:40;;;;;;;28.85;3.47;;;7.50;99.90;;;;;;4981648;28;20480;-90
2023/12/10 02:32:06;;;;;;;35.85;4.47;;;7.60;99.90;;;;;;4998561;28;20110;-90
2023/12/10 02:34:31;;;;;;;42.53;4.50;;;7.50;99.90;;;;;;4999833;28;20144;-91
2023/12/10 02:36:57;;;;;;;36.15;5.13;;;7.60;99.90;;;;;;4999893;28;20022;-90
2023/12/10 02:39:23;;;;;;;25.38;3.28;;;7.50;99.90;;;;;;5000275;28;20037;-88
2023/12/10 02:41:49;;;;;;;41.60;5.38;;;7.50;99.90;;;;;;4999648;28;20030;-90
2023/12/10 02:44:14;;;;;;;30.05;3.40;;;7.50;99.90;;;;;;4999913;28;20491;-90
2023/12/10 02:46:49;;;;;;;32.92;3.80;;;7.50;99.90;;;;;;4998675;28;20030;-89
2023/12/10 02:49:15;;;;;;;32.00;5.13;;;7.50;99.90;;;;;;4999716;28;20034;-90
2023/12/10 02:51:41;;;;;;;27.83;4.95;;;7.50;99.90;;;;;;5017173;28;20026;-90
2023/12/10 02:54:07;;;;;;;31.88;4.93;;;7.50;99.90;;;;;;4998904;28;20041;-92
2023/12/10 02:56:35;;;;;;;29.23;5.13;;;7.60;99.90;;;;;;4999307;28;20022;-89
2023/12/10 02:59:00;;;;;;;32.47;4.97;;;7.50;99.90;;;;;;4999154;28;20056;-91
2023/12/10 03:01:27;;;;;;;23.52;3.72;;;7.50;99.90;;;;;;4982845;28;20116;-90
2023/12/10 03:03:53;;;;;;;24.23;3.65;;;7.50;99.90;;;;;;4999112;28;20109;-90
2023/12/10 03:06:19;;;;;;;17.77;2.92;;;7.50;99.90;;;;;;4999558;28;20107;-90
2023/12/10 03:08:45;;;;;;;33.25;3.83;;;7.50;99.90;;;;;;4999285;28;20034;-91
2023/12/10 03:11:11;;;;;;;29.15;3.90;;;7.50;99.90;;;;;;4998934;28;20028;-91
2023/12/10 03:13:36;;;;;;;31.95;3.97;;;7.50;99.90;;;;;;4998771;28;20034;-90
2023/12/10 03:16:02;;;;;;;26.02;3.40;;;7.50;99.90;;;;;;4998817;28;20030;-90
2023/12/10 03:18:30;;;;;;;23.25;3.45;;;7.50;99.90;;;;;;4998924;28;20021;-90
2023/12/10 03:20:55;;;;;;;36.22;3.50;;;7.50;99.90;;;;;;4998809;28;20038;-89
2023/12/10 03:23:21;;;;;;;31.55;3.85;;;7.50;99.90;;;;;;4999559;28;20105;-88
2023/12/10 03:25:47;;;;;;;23.33;2.50;;;7.50;99.90;;;;;;5013070;28;20026;-90
2023/12/10 03:28:13;;;;;;;30.38;3.38;;;7.50;99.90;;;;;;5001345;28;20045;-89
2023/12/10 03:30:39;;;;;;;31.02;4.05;;;7.50;99.90;;;;;;4998768;28;20568;-90
2023/12/10 03:33:04;;;;;;;30.60;4.47;;;7.50;99.90;;;;;;5015135;28;20036;-89
2023/12/10 03:35:30;;;;;;;21.85;2.80;;;7.50;99.90;;;;;;4997405;28;20076;-90
2023/12/10 03:37:56;;;;;;;32.67;3.17;;;7.50;99.90;;;;;;4996813;28;20498;-89
2023/12/10 03:40:23;;;;;;;26.95;4.25;;;7.50;99.90;;;;;;4996433;28;20030;-89
2023/12/10 03:42:48;;;;;;;40.08;4.15;;;7.50;99.90;;;;;;4991398;28;20527;-91
2023/12/10 03:45:14;;;;;;;20.02;2.20;;;7.50;99.90;;;;;;4989164;28;20034;-89
2023/12/10 03:47:46;;;;;;;35.20;4.63;;;7.50;99.90;;;;;;4996837;28;20597;-88
2023/12/10 03:50:15;;;;;;;28.13;4.13;;;7.50;99.90;;;;;;4993240;28;20063;-89
2023/12/10 03:52:41;;;;;;;35.08;3.88;;;7.50;99.90;;;;;;4996044;28;20029;-88
2023/12/10 03:55:08;;;;;;;27.60;3.15;;;7.40;99.90;;;;;;4997453;28;20080;-90
2023/12/10 03:57:33;;;;;;;19.13;3.42;;;7.40;99.90;;;;;;4997851;28;20045;-91
2023/12/10 04:00:00;;;;;;;24.63;2.72;;;7.40;99.90;;;;;;4997331;28;20029;-90
2023/12/10 04:02:25;;;;;;;19.13;2.42;;;7.40;99.90;;;;;;4997801;28;20026;-90
2023/12/10 04:04:51;;;;;;;25.55;3.60;;;7.40;99.90;;;;;;4997800;28;20088;-91
2023/12/10 04:07:17;;;;;;;29.10;3.65;;;7.40;99.90;;;;;;4998893;28;20025;-90
2023/12/10 04:09:43;;;;;;;22.33;3.47;;;7.40;99.90;;;;;;4998098;28;20030;-90
2023/12/10 04:12:08;;;;;;;29.73;3.15;;;7.40;99.90;;;;;;4998707;28;20083;-90
2023/12/10 04:14:34;;;;;;;19.55;3.03;;;7.40;99.90;;;;;;4998253;28;20042;-89
2023/12/10 04:17:00;;;;;;;32.55;4.20;;;7.40;99.90;;;;;;4998028;28;20030;-90
2023/12/10 04:19:25;;;;;;;31.02;4.85;;;7.30;99.90;;;;;;5014902;28;20177;-90
2023/12/10 04:21:51;;;;;;;16.40;2.65;;;7.40;99.90;;;;;;4998155;28;20058;-90
2023/12/10 04:24:17;;;;;;;17.02;2.90;;;7.40;99.90;;;;;;4995472;28;20550;-89
2023/12/10 04:26:43;;;;;;;20.88;3.78;;;7.30;99.90;;;;;;4996321;28;20121;-91
2023/12/10 04:29:11;;;;;;;19.40;2.75;;;7.30;99.90;;;;;;4997811;28;20510;-91
2023/12/10 04:31:37;;;;;;;30.80;2.90;;;7.30;99.90;;;;;;4997698;28;20140;-91
2023/12/10 04:34:03;;;;;;;34.88;3.70;;;7.30;99.90;;;;;;4998643;28;20451;-90
2023/12/10 04:36:29;;;;;;;21.02;2.80;;;7.30;99.90;;;;;;4999310;28;20116;-90
2023/12/10 04:38:55;;;;;;;22.13;3.30;;;7.30;99.90;;;;;;5007548;28;20037;-89
2023/12/10 04:41:21;;;;;;;26.55;3.65;;;7.30;99.90;;;;;;4997756;28;20018;-89
2023/12/10 04:43:48;;;;;;;23.27;3.33;;;7.30;99.90;;;;;;4997638;28;20021;-89
2023/12/10 04:46:16;;;;;;;24.45;3.00;;;7.30;99.90;;;;;;4998172;28;20131;-89
2023/12/10 04:48:42;;;;;;;24.17;3.63;;;7.20;99.90;;;;;;5000856;28;20395;-90
2023/12/10 04:51:09;;;;;;;19.88;3.63;;;7.20;99.90;;;;;;5017645;28;20029;-90
2023/12/10 04:53:35;;;;;;;27.75;4.18;;;7.20;99.90;;;;;;5018698;28;20018;-90
2023/12/10 04:56:01;;;;;;;14.77;2.92;;;7.20;99.90;;;;;;5019282;28;20044;-90
2023/12/10 04:58:27;;;;;;;29.48;3.90;;;7.20;99.90;;;;;;5004332;28;20042;-90
2023/12/10 05:00:53;;;;;;;26.42;4.07;;;7.20;99.90;;;;;;5002423;28;20472;-88
2023/12/10 05:03:18;;;;;;;30.38;4.05;;;7.10;99.90;;;;;;5002857;28;20029;-87
2023/12/10 05:05:44;;;;;;;29.35;4.97;;;7.20;99.90;;;;;;5004693;28;20025;-89
2023/12/10 05:08:10;;;;;;;20.10;3.15;;;7.10;99.90;;;;;;5001982;28;20126;-89
2023/12/10 05:10:36;;;;;;;33.13;3.90;;;7.10;99.90;;;;;;5000517;28;20022;-88
2023/12/10 05:13:01;;;;;;;19.95;3.25;;;7.10;99.90;;;;;;4998623;28;20109;-88
2023/12/10 05:15:27;;;;;;;20.17;2.70;;;7.10;99.90;;;;;;4997250;28;20030;-89
2023/12/10 05:17:53;;;;;;;22.75;4.32;;;7.10;99.90;;;;;;4996694;28;20018;-89
2023/12/10 05:20:19;;;;;;;19.48;3.42;;;7.10;99.90;;;;;;4996446;28;20092;-89
2023/12/10 05:22:44;;;;;;;18.88;3.35;;;7.10;99.90;;;;;;4996708;28;20494;-89
2023/12/10 05:25:11;;;;;;;21.40;3.05;;;7.00;99.90;;;;;;4996684;28;20117;-90
2023/12/10 05:27:37;;;;;;;20.85;3.10;;;7.00;99.90;;;;;;4996333;28;20030;-89
2023/12/10 05:30:03;;;;;;;19.48;3.00;;;7.00;99.90;;;;;;4996768;28;20141;-88
2023/12/10 05:32:28;;;;;;;21.90;3.53;;;7.00;99.90;;;;;;4996209;28;20030;-89
2023/12/10 05:34:54;;;;;;;18.55;3.38;;;7.00;99.90;;;;;;4996841;28;20030;-89
2023/12/10 05:37:20;;;;;;;26.50;3.47;;;6.90;99.90;;;;;;4996858;28;20026;-89
2023/12/10 05:39:46;;;;;;;30.10;3.22;;;6.90;99.90;;;;;;4996698;28;20101;-89
2023/12/10 05:42:12;;;;;;;27.42;3.40;;;6.90;99.90;;;;;;4996483;28;20387;-88
2023/12/10 05:44:37;;;;;;;19.35;2.45;;;6.90;99.90;;;;;;4995207;28;20026;-88
2023/12/10 05:47:03;;;;;;;19.92;2.53;;;6.90;99.90;;;;;;4990698;28;20026;-88
2023/12/10 05:49:29;;;;;;;23.70;3.63;;;6.90;99.90;;;;;;4985684;28;20029;-88
2023/12/10 05:51:55;;;;;;;21.83;2.38;;;6.80;99.90;;;;;;5003959;28;20137;-88
2023/12/10 05:54:23;;;;;;;23.85;3.53;;;6.80;99.90;;;;;;4996735;28;20388;-88
2023/12/10 05:56:49;;;;;;;17.63;2.60;;;6.70;99.90;;;;;;4995477;28;20034;-89
2023/12/10 05:59:16;;;;;;;15.95;3.35;;;6.70;99.90;;;;;;4995630;28;20037;-88
2023/12/10 06:01:42;;;;;;;20.30;3.15;;;6.70;99.90;;;;;;4987162;28;20022;-87
2023/12/10 06:04:07;;;;;;;23.77;3.58;;;6.60;99.90;;;;;;5013158;28;20080;-89
2023/12/10 06:06:33;;;;;;;26.65;2.47;;;6.60;99.90;;;;;;5012422;28;20025;-89
2023/12/10 06:08:59;;;;;;;20.48;2.58;;;6.60;99.90;;;;;;4995794;28;20128;-88
2023/12/10 06:11:24;;;;;;;21.90;4.35;;;6.50;99.90;;;;;;4995402;28;20057;-88
2023/12/10 06:13:50;;;;;;;15.73;1.98;;;6.50;99.90;;;;;;4995751;28;20072;-88
2023/12/10 06:16:16;;;;;;;18.13;2.50;;;6.50;99.90;;;;;;4996051;28;20029;-89
2023/12/10 06:18:41;;;;;;;17.17;3.20;;;6.50;99.90;;;;;;5013196;28;20045;-87
2023/12/10 06:21:07;;;;;;;17.65;2.42;;;6.40;99.90;;;;;;4995642;28;20120;-88
2023/12/10 06:23:33;;;;;;;22.58;3.75;;;6.40;99.90;;;;;;4995146;28;20026;-88
2023/12/10 06:25:59;;;;;;;21.08;2.45;;;6.40;99.90;;;;;;4994750;28;20034;-88
2023/12/10 06:28:24;;;;;;;19.42;2.50;;;6.40;99.90;;;;;;4995431;28;20029;-87
2023/12/10 06:30:50;;;;;;;19.50;2.60;;;6.30;99.90;;;;;;4995635;28;20515;-88
2023/12/10 06:33:16;;;;;;;24.05;4.03;;;6.30;99.90;;;;;;4995611;28;20034;-88
2023/12/10 06:35:41;;;;;;;21.55;2.92;;;6.30;99.90;;;;;;4994854;28;20030;-88
2023/12/10 06:38:07;;;;;;;16.45;2.33;;;6.30;99.90;;;;;;4995312;28;20030;-88
2023/12/10 06:40:33;;;;;;;19.70;2.40;;;6.30;99.90;;;;;;4995190;28;20030;-87
2023/12/10 06:42:59;;;;;;;14.10;2.78;;;6.30;99.90;;;;;;4995248;28;20121;-88
2023/12/10 06:45:24;;;;;;;26.85;3.85;;;6.20;99.90;;;;;;4995647;28;20018;-87
2023/12/10 06:47:50;;;;;;;20.52;2.65;;;6.30;99.90;;;;;;4995452;28;20100;-87
2023/12/10 06:50:16;;;;;;;13.30;1.60;;;6.20;99.90;;;;;;4995600;28;20030;-87
2023/12/10 06:52:41;;;;;;;22.60;2.55;;;6.20;99.90;;;;;;4995217;28;20029;-87
2023/12/10 06:55:08;;;;;;;11.73;2.13;;;6.20;99.90;;;;;;4995077;28;20117;-88
2023/12/10 06:57:34;;;;;;;11.88;1.98;;;6.20;99.90;;;;;;4998701;28;20030;-88
2023/12/10 06:59:59;;;;;;;13.00;2.42;;;6.10;99.90;;;;;;4998759;28;20412;-88
2023/12/10 07:02:25;;;;;;;22.30;2.78;;;6.10;99.90;;;;;;4998438;28;20026;-88
2023/12/10 07:04:51;;;;;;;15.52;2.90;;;6.10;99.90;;;;;;4998486;28;20030;-88
2023/12/10 07:07:16;;;;;;;15.52;2.25;;;6.10;99.90;;;;;;4998710;28;20466;-88
2023/12/10 07:09:42;;;;;;;16.98;2.03;;;6.10;99.90;;;;;;4998666;28;20086;-88
2023/12/10 07:12:08;;;;;;;12.27;2.05;;;6.10;99.90;;;;;;4998517;28;20026;-86
2023/12/10 07:14:33;;;;;;;13.50;2.17;;;6.00;99.90;;;;;;4998869;28;20044;-88
2023/12/10 07:16:59;;;;;;;8.50;1.75;;;6.00;99.90;;;;;;4998480;28;20032;-88
2023/12/10 07:19:25;;;;;;;11.70;1.80;;;6.00;99.90;;;;;;4998846;28;20030;-87
2023/12/10 07:21:52;;;;;;;11.63;2.38;;;6.00;99.90;;;;;;4999147;28;20030;-88
2023/12/10 07:24:19;;;;;;;18.83;2.80;;;6.00;99.90;;;;;;5000605;28;20026;-87
2023/12/10 07:26:45;;;;;;;16.23;1.88;;;5.90;99.90;;;;;;5008145;28;20088;-88
2023/12/10 07:29:11;;;;;;;19.35;3.55;;;5.90;99.90;;;;;;5016330;28;20030;-88
2023/12/10 07:31:37;;;;;;;6.25;1.42;;;5.90;99.90;;;;;;4989957;28;20046;-89
2023/12/10 07:34:02;;;;;;;18.70;2.67;;;5.80;99.90;;;;;;4981210;28;20081;-88
2023/12/10 07:36:28;;;;;;;18.73;2.58;;;5.80;99.90;;;;;;4980498;28;20023;-87
2023/12/10 07:38:54;;;;;;;7.38;1.33;;;5.70;99.90;;;;;;4978741;28;20387;-88
2023/12/10 07:41:21;;;;;;;11.60;2.35;;;5.70;99.90;;;;;;4978804;28;20502;-88
2023/12/10 07:43:47;;;;;;;18.27;2.35;;;5.70;99.90;;;;;;4978714;28;20018;-88
2023/12/10 07:46:13;;;;;;;14.75;2.95;;;5.60;99.90;;;;;;4978821;28;20040;-88
2023/12/10 07:48:39;;;;;;;11.35;2.67;;;5.60;99.90;;;;;;4978693;28;20510;-88
2023/12/10 07:51:05;;;;;;;9.13;2.03;;;5.60;99.90;;;;;;4978954;28;20041;-88
2023/12/10 07:53:30;;;;;;;14.32;1.70;;;5.60;99.90;;;;;;4979804;28;20022;-88
2023/12/10 07:55:56;;;;;;;10.98;1.92;;;5.60;99.90;;;;;;4986233;28;20048;-89
2023/12/10 07:58:22;;;;;;;12.38;1.77;;;5.60;99.90;;;;;;4986476;28;20089;-89
2023/12/10 08:00:48;;;;;;;16.52;1.90;;;5.60;99.90;;;;;;4983319;28;20502;-88
2023/12/10 08:03:14;;;;;;;8.80;1.80;;;5.60;99.90;;;;;;4982303;28;20472;-88
2023/12/10 08:05:40;;;;;;;14.23;1.95;;;5.60;99.90;;;;;;4981635;28;20030;-88
2023/12/10 08:08:06;;;;;;;15.80;2.60;;;5.60;99.90;;;;;;4979748;28;20480;-88
2023/12/10 08:10:32;;;;;;;12.13;1.90;;;5.60;99.90;;;;;;4981070;28;20125;-89
2023/12/10 08:12:58;;;;;;;14.32;2.50;;;5.60;99.90;;;;;;4980245;28;20018;-89
2023/12/10 08:15:24;;;;;;;7.72;1.55;;;5.60;99.90;;;;;;4980201;28;20448;-89
2023/12/10 08:17:50;;;;;;;15.13;2.05;;;5.60;99.90;;;;;;4978566;28;20129;-89
2023/12/10 08:20:18;;;;;;;16.67;1.92;;;5.60;99.90;;;;;;4978227;28;20539;-88
2023/12/10 08:22:44;;;;;;;9.38;1.90;;;5.60;99.90;;;;;;4975097;28;20105;-90
2023/12/10 08:25:10;;;;;;;20.23;2.35;;;5.60;99.90;;;;;;4977393;28;20534;-87
2023/12/10 08:27:36;;;;;;;21.40;3.50;;;5.70;99.90;;;;;;4977332;28;20026;-89
2023/12/10 08:30:02;;;;;;;21.20;2.03;;;5.70;99.90;;;;;;4978997;28;20034;-87
2023/12/10 08:32:29;;;;;;;11.65;1.70;;;5.70;99.90;;;;;;4996692;28;20033;-88
2023/12/10 08:34:54;;;;;;;20.90;2.35;;;5.80;99.90;;;;;;4996228;28;20543;-91
2023/12/10 08:37:20;;;;;;;22.60;2.83;;;5.90;99.90;;;;;;4995984;28;20017;-88
2023/12/10 08:39:49;;;;;;;21.45;3.25;;;5.90;99.90;;;;;;4996053;28;20507;-91
2023/12/10 08:42:15;;;;;;;46.95;4.88;;;5.90;99.90;;;;;;4995764;28;20068;-91
2023/12/10 08:44:40;;;;;;;22.20;3.55;;;5.90;99.90;;;;;;4995847;28;20054;-88
2023/12/10 08:47:06;;;;;;;10.30;1.80;;;5.90;99.90;;;;;;4995185;28;20022;-88
2023/12/10 08:49:32;;;;;;;7.88;1.85;;;5.90;99.90;;;;;;4995511;28;20059;-92
2023/12/10 08:51:58;;;;;;;23.33;2.50;;;5.90;99.90;;;;;;4995928;28;20124;-89
2023/12/10 08:54:24;;;;;;;22.05;3.50;;;5.90;99.90;;;;;;4995736;28;20080;-90
2023/12/10 08:56:49;;;;;;;28.83;2.58;;;5.90;99.90;;;;;;4992479;28;20018;-89
2023/12/10 08:59:15;;;;;;;14.80;2.08;;;5.90;99.90;;;;;;5003362;28;20057;-90
2023/12/10 09:01:41;;;;;;;7.32;1.77;;;5.90;99.90;;;;;;4981352;28;20030;-90
2023/12/10 09:04:07;;;;;;;11.68;2.00;;;5.90;99.90;;;;;;5007630;28;20015;-90
2023/12/10 09:06:33;;;;;;;15.88;2.10;;;5.80;99.90;;;;;;4975692;28;20034;-91
2023/12/10 09:08:58;;;;;;;17.98;2.03;;;5.80;99.90;;;;;;4975999;28;20033;-90
2023/12/10 09:11:24;;;;;;;15.43;2.17;;;5.80;99.90;;;;;;4976849;28;20038;-92
2023/12/10 09:13:50;;;;;;;16.95;1.92;;;5.80;99.90;;;;;;4976122;28;20146;-90
2023/12/10 09:16:18;;;;;;;13.35;2.00;;;5.80;99.90;;;;;;4976432;28;20034;-89
2023/12/10 09:18:44;;;;;;;18.35;3.80;;;5.80;99.90;;;;;;4992628;28;20068;-92
2023/12/10 09:21:10;;;;;;;13.63;2.08;;;5.80;99.90;;;;;;4976649;28;20030;-90
2023/12/10 09:23:36;;;;;;;8.35;2.60;;;5.80;99.90;;;;;;4976619;28;20073;-91
2023/12/10 09:26:05;;;;;;;6.00;1.52;;;5.80;99.90;;;;;;4977406;28;20557;-90
2023/12/10 09:28:30;;;;;;;6.68;2.72;;;5.80;99.90;;;;;;4976366;28;20023;-90
2023/12/10 09:30:56;;;;;;;12.07;1.58;;;5.80;99.90;;;;;;4983839;28;20049;-90
2023/12/10 09:33:22;;;;;;;13.43;2.03;;;5.80;99.90;;;;;;5013421;28;20036;-90
2023/12/10 09:35:48;;;;;;;17.48;2.03;;;5.80;99.90;;;;;;4996428;28;20022;-89
2023/12/10 09:38:14;;;;;;;17.77;2.67;;;5.90;99.90;;;;;;4996045;28;20105;-92
2023/12/10 09:40:40;;;;;;;13.13;1.90;;;5.90;99.90;;;;;;4995875;28;20037;-89
2023/12/10 09:43:06;;;;;;;20.13;2.90;;;5.90;99.90;;;;;;4995982;28;20017;-92
2023/12/10 09:45:32;;;;;;;18.25;2.63;;;5.90;99.90;;;;;;5013142;28;20076;-90
2023/12/10 09:48:00;;;;;;;16.30;3.05;;;5.90;99.90;;;;;;4993280;28;20050;-90
2023/12/10 09:50:26;;;;;;;25.17;2.78;;;5.90;99.90;;;;;;4996798;28;20030;-90
2023/12/10 09:52:53;;;;;;;13.60;3.92;;;5.90;99.90;;;;;;4997744;28;20028;-90
2023/12/10 09:55:19;;;;;;;11.50;1.80;;;5.90;99.90;;;;;;5002964;28;20053;-90
2023/12/10 09:57:45;;;;;;;7.57;1.80;;;6.00;99.90;;;;;;5019044;28;20026;-90
2023/12/10 10:00:14;;;;;;;9.98;2.00;;;6.00;99.90;;;;;;5017969;28;20018;-91
2023/12/10 10:02:42;;;;;;;15.50;2.38;;;6.10;99.90;;;;;;4996588;28;20026;-90
2023/12/10 10:05:08;;;;;;;22.00;3.45;;;6.10;99.90;;;;;;4995590;28;20075;-89
2023/12/10 10:07:34;;;;;;;23.23;3.20;;;6.10;99.90;;;;;;4997285;28;20022;-91
2023/12/10 10:09:59;;;;;;;20.25;2.75;;;6.10;99.90;;;;;;4996340;28;20033;-89
2023/12/10 10:12:33;;;;;;;16.38;2.08;;;6.20;99.90;;;;;;4993719;28;20049;-91
2023/12/10 10:15:00;;;;;;;23.30;3.20;;;6.10;99.90;;;;;;4999121;28;20431;-91
2023/12/10 10:17:35;;;;;;;17.70;3.53;;;6.20;99.90;;;;;;4999622;28;20105;-90
2023/12/10 10:20:04;;;;;;;18.77;3.17;;;6.20;99.90;;;;;;4996406;28;20045;-90
2023/12/10 10:22:31;;;;;;;15.38;3.00;;;6.20;99.90;;;;;;4995490;28;20037;-90
2023/12/10 10:24:56;;;;;;;12.65;2.53;;;6.20;99.90;;;;;;4995914;28;20083;-89
2023/12/10 10:27:23;;;;;;;20.52;2.88;;;6.20;99.90;;;;;;4995793;28;20109;-91
2023/12/10 10:29:55;;;;;;;20.83;3.17;;;6.20;99.90;;;;;;4997064;28;20049;-90
2023/12/10 10:32:22;;;;;;;21.13;5.72;;;6.20;99.90;;;;;;4982089;28;20026;-91
2023/12/10 10:34:49;;;;;;;17.60;2.78;;;6.20;99.90;;;;;;4981948;28;20041;-91
2023/12/10 10:37:16;;;;;;;15.07;2.97;;;6.10;99.90;;;;;;4982825;28;20023;-92
2023/12/10 10:39:48;;;;;;;23.52;3.47;;;6.10;99.90;;;;;;4987032;28;20022;-94
2023/12/10 10:42:13;;;;;;;36.53;4.53;;;6.10;99.90;;;;;;4987919;28;20026;-92
2023/12/10 10:44:41;;;;;;;19.55;2.90;;;6.10;99.90;;;;;;4982996;28;20031;-93
2023/12/10 11:00:23;;;;;;;16.58;2.45;;;6.10;99.90;;;;;;5909877;23;20088;-94
2023/12/10 11:02:54;;;;;;;19.60;3.38;;;6.20;99.90;;;;;;5046962;28;20025;-93
2023/12/10 11:05:36;;;;;;;16.58;2.15;;;6.20;99.90;;;;;;5026692;28;20029;-92
2023/12/10 11:08:07;;;;;;;22.52;2.75;;;6.20;99.90;;;;;;5024264;28;20099;-92
2023/12/10 11:10:34;;;;;;;18.80;2.70;;;6.20;99.90;;;;;;5022438;28;20026;-92
2023/12/10 11:13:01;;;;;;;16.67;4.00;;;6.20;99.90;;;;;;5024968;28;20021;-91
2023/12/10 11:15:30;;;;;;;11.85;2.50;;;6.20;99.90;;;;;;5026363;28;20410;-91
2023/12/10 11:17:58;;;;;;;18.38;3.15;;;6.30;99.90;;;;;;5025720;28;20068;-91
2023/12/10 11:20:40;;;;;;;27.10;3.00;;;6.30;99.90;;;;;;5019919;28;20119;-92
2023/12/10 11:23:11;;;;;;;20.58;2.97;;;6.30;99.90;;;;;;5022069;28;20033;-93
2023/12/10 11:25:37;;;;;;;14.68;3.10;;;6.30;99.90;;;;;;5027663;28;20025;-92
2023/12/10 11:28:18;;;;;;;18.98;3.63;;;6.30;99.90;;;;;;5017881;28;20059;-94
2023/12/10 11:30:45;;;;;;;33.75;7.15;;;6.30;99.90;;;;;;5021765;28;20033;-94
2023/12/10 11:33:15;;;;;;;23.98;3.70;;;6.30;99.90;;;;;;5019692;28;20045;-94
2023/12/10 11:35:41;;;;;;;18.95;3.47;;;6.30;99.90;;;;;;5018327;28;20034;-94
2023/12/10 11:38:08;;;;;;;27.60;5.53;;;6.30;99.90;;;;;;5018605;28;20033;-94
2023/12/10 11:40:34;;;;;;;22.60;4.00;;;6.40;99.90;;;;;;5013860;28;20117;-93
2023/12/10 11:43:06;;;;;;;21.33;3.72;;;6.40;99.90;;;;;;5019348;28;20052;-94
2023/12/10 11:45:33;;;;;;;21.48;3.80;;;6.40;99.90;;;;;;5018329;28;20022;-94
2023/12/10 11:48:01;;;;;;;26.05;4.05;;;6.40;99.90;;;;;;5021482;28;20029;-93
2023/12/10 11:50:27;;;;;;;30.58;5.43;;;6.40;99.90;;;;;;5023317;28;20490;-94
2023/12/10 11:52:53;;;;;;;23.35;4.03;;;6.50;99.90;;;;;;5010267;28;20474;-94
2023/12/10 11:55:19;;;;;;;31.33;3.45;;;6.50;99.90;;;;;;5032760;28;20063;-93
2023/12/10 11:57:45;;;;;;;28.35;4.45;;;6.50;99.90;;;;;;5018666;28;20040;-93
2023/12/10 12:00:13;;;;;;;25.38;5.50;;;6.50;99.90;;;;;;5012167;28;20030;-93
2023/12/10 12:02:46;;;;;;;18.17;2.78;;;6.60;99.90;;;;;;5000809;28;20022;-96
2023/12/10 12:05:14;;;;;;;29.25;5.25;;;6.60;99.90;;;;;;5020622;28;20038;-95
2023/12/10 12:07:44;;;;;;;18.05;3.85;;;6.60;99.90;;;;;;5001279;28;20028;-93
2023/12/10 12:10:14;;;;;;;17.42;2.80;;;6.60;99.90;;;;;;4996681;28;20026;-94
2023/12/10 12:12:45;;;;;;;20.70;2.63;;;6.60;99.90;;;;;;5000857;28;20473;-95
2023/12/10 12:15:12;;;;;;;21.10;2.60;;;6.60;99.90;;;;;;5001062;28;20045;-93
2023/12/10 12:17:38;;;;;;;17.88;2.10;;;6.70;99.90;;;;;;4999390;28;20080;-93
2023/12/10 12:20:18;;;;;;;28.25;2.97;;;6.70;99.90;;;;;;5006079;28;20030;-92
2023/12/10 12:22:47;;;;;;;24.75;2.92;;;6.70;99.90;;;;;;5000808;28;20026;-94
2023/12/10 12:25:13;;;;;;;18.05;3.25;;;6.70;99.90;;;;;;5001557;28;20030;-90
2023/12/10 12:27:38;;;;;;;18.70;4.05;;;6.70;99.90;;;;;;5018536;28;20460;-95
2023/12/10 12:30:05;;;;;;;21.17;2.97;;;6.80;99.90;;;;;;5006565;28;20064;-95
2023/12/10 12:32:31;;;;;;;18.85;3.35;;;6.80;99.90;;;;;;5018372;28;20033;-94
2023/12/10 12:34:57;;;;;;;19.00;3.85;;;6.90;99.90;;;;;;4997885;28;20430;-93
2023/12/10 12:37:23;;;;;;;26.55;5.68;;;6.90;99.90;;;;;;4997750;28;20093;-93
2023/12/10 12:39:50;;;;;;;19.63;4.07;;;7.00;99.90;;;;;;4997270;28;20033;-94
2023/12/10 12:42:16;;;;;;;19.40;4.00;;;7.10;99.90;;;;;;4993700;28;20046;-95
2023/12/10 12:44:42;;;;;;;26.63;4.68;;;7.10;99.90;;;;;;4996469;28;20029;-95
2023/12/10 12:47:07;;;;;;;26.65;4.55;;;7.20;99.90;;;;;;4996070;28;20083;-94
2023/12/10 12:49:35;;;;;;;30.38;4.63;;;7.20;99.90;;;;;;4996689;28;20511;-94
2023/12/10 12:52:02;;;;;;;21.38;4.75;;;7.20;99.90;;;;;;4996960;28;20484;-93
2023/12/10 12:54:30;;;;;;;22.33;5.45;;;7.20;99.90;;;;;;4996068;28;20030;-95
2023/12/10 12:56:56;;;;;;;23.40;5.25;;;7.30;99.90;;;;;;4996455;28;20022;-94